Time;durP1;ratioP1;P1;durP2;ratioP2;P2;SDS_P1;SDS_P2;PMS_P1;PMS_P2;Temp;Humidity;BMP_temperature;BMP_pressure;BME280_temperature;BME280_humidity;BME280_pressure;Samples;Min_cycle;Max_cycle;Signal;HPM_P1;HPM_P2
2023/10/05 00:01:10;;;;;;;8.77;1.73;;;;;;;;;;5089637;28;20438;-88
2023/10/05 00:03:43;;;;;;;6.55;1.30;;;;;;;;;;5054938;28;20423;-88
2023/10/05 00:06:15;;;;;;;6.30;1.35;;;;;;;;;;5055880;28;20150;-87
2023/10/05 00:08:44;;;;;;;;;;;;;;;;;;5055793;28;20344;-87
2023/10/05 00:11:10;;;;;;;16.38;1.90;;;;;;;;;;5056156;28;19969;-88
2023/10/05 00:13:35;;;;;;;5.65;1.48;;;;;;;;;;5056259;28;20040;-88
2023/10/05 00:16:04;;;;;;;9.75;1.30;;;;;;;;;;5056149;28;20032;-88
2023/10/05 00:18:30;;;;;;;7.40;1.23;;;;;;;;;;5056144;28;20017;-87
2023/10/05 00:20:56;;;;;;;6.35;1.25;;;;;;;;;;5056395;28;20043;-87
2023/10/05 00:23:21;;;;;;;10.98;1.20;;;;;;;;;;5074163;28;20080;-88
2023/10/05 00:25:50;;;;;;;4.53;1.13;;;;;;;;;;5061603;28;20036;-88
2023/10/05 00:28:20;;;;;;;3.53;1.05;;;;;;;;;;5076798;28;20191;-88
2023/10/05 00:30:46;;;;;;;6.60;1.23;;;;;;;;;;5079250;28;20028;-88
2023/10/05 00:33:11;;;;;;;19.52;1.58;;;;;;;;;;5091167;28;20027;-88
2023/10/05 00:35:38;;;;;;;6.38;1.10;;;;;;;;;;5056497;28;20047;-88
2023/10/05 00:38:15;;;;;;;9.73;1.60;;;;;;;;;;5058911;28;20020;-88
2023/10/05 00:40:54;;;;;;;7.10;1.30;;;;;;;;;;5057635;28;20020;-88
2023/10/05 00:45:48;;;;;;;11.32;1.20;;;;;;;;;;5074451;28;20091;-86
2023/10/05 00:51:08;;;;;;;8.88;1.80;;;;;;;;;;5073948;28;20032;-88
2023/10/05 00:53:35;;;;;;;8.82;1.20;;;;;;;;;;5056063;28;20115;-88
2023/10/05 00:56:08;;;;;;;7.68;1.58;;;;;;;;;;5055324;28;20028;-88
2023/10/05 00:58:37;;;;;;;6.13;1.45;;;;;;;;;;5055206;28;20472;-87
2023/10/05 01:01:08;;;;;;;5.93;1.10;;;;;;;;;;5055733;28;20064;-87
2023/10/05 01:03:33;;;;;;;7.10;1.35;;;;;;;;;;5042293;28;20017;-88
2023/10/05 01:06:21;;;;;;;4.78;1.30;;;;;;;;;;5056037;28;20028;-85
2023/10/05 01:08:55;;;;;;;6.28;1.38;;;;;;;;;;5051311;28;20078;-87
2023/10/05 01:11:31;;;;;;;13.15;1.35;;;;;;;;;;5066501;28;20063;-88
2023/10/05 01:13:58;;;;;;;5.45;1.33;;;;;;;;;;5055084;28;20020;-87
2023/10/05 01:16:24;;;;;;;9.00;1.30;;;;;;;;;;5055068;28;20023;-88
2023/10/05 01:18:50;;;;;;;2.85;1.30;;;;;;;;;;5055327;28;20028;-88
2023/10/05 01:21:18;;;;;;;10.93;1.83;;;;;;;;;;5054106;28;20043;-88
2023/10/05 01:23:49;;;;;;;3.85;1.20;;;;;;;;;;5055529;28;20089;-88
2023/10/05 01:26:18;;;;;;;8.77;1.45;;;;;;;;;;5055427;28;20016;-88
2023/10/05 01:28:44;;;;;;;9.50;1.45;;;;;;;;;;5056164;28;20019;-87
2023/10/05 01:31:20;;;;;;;7.63;1.30;;;;;;;;;;5056450;28;20048;-88
2023/10/05 01:33:48;;;;;;;8.13;1.40;;;;;;;;;;5073562;28;20376;-88
2023/10/05 01:36:18;;;;;;;5.03;1.30;;;;;;;;;;5055790;28;20536;-88
2023/10/05 01:38:45;;;;;;;5.22;1.40;;;;;;;;;;5058905;28;20025;-88
2023/10/05 01:41:10;;;;;;;9.13;1.65;;;;;;;;;;5091589;28;20032;-88
2023/10/05 01:43:38;;;;;;;7.85;1.90;;;;;;;;;;5060494;28;20021;-88
2023/10/05 01:46:10;;;;;;;4.90;1.23;;;;;;;;;;5060102;28;20024;-88
2023/10/05 01:48:37;;;;;;;6.50;1.33;;;;;;;;;;5062629;28;20084;-88
2023/10/05 01:51:10;;;;;;;6.88;1.30;;;;;;;;;;5076274;28;20017;-88
2023/10/05 01:53:36;;;;;;;4.78;1.48;;;;;;;;;;5057365;28;20386;-88
2023/10/05 01:56:03;;;;;;;6.90;2.20;;;;;;;;;;5055266;28;20104;-87
2023/10/05 01:58:34;;;;;;;5.78;1.50;;;;;;;;;;5057589;28;20016;-88
2023/10/05 02:00:59;;;;;;;9.73;1.52;;;;;;;;;;5057704;28;20040;-88
2023/10/05 02:03:25;;;;;;;7.32;1.40;;;;;;;;;;5088300;28;20009;-87
2023/10/05 02:05:53;;;;;;;8.65;1.73;;;;;;;;;;5054815;28;20027;-88
2023/10/05 02:08:20;;;;;;;7.60;1.33;;;;;;;;;;5052860;28;20013;-88
2023/10/05 02:10:48;;;;;;;8.85;1.90;;;;;;;;;;5084450;28;20023;-88
2023/10/05 02:13:13;;;;;;;8.43;1.30;;;;;;;;;;5054838;28;20732;-88
2023/10/05 02:15:39;;;;;;;6.20;1.33;;;;;;;;;;5054675;28;20028;-88
2023/10/05 02:18:18;;;;;;;5.70;1.10;;;;;;;;;;5055225;28;20533;-88
2023/10/05 02:20:45;;;;;;;10.57;1.55;;;;;;;;;;5054684;28;20017;-88
2023/10/05 02:23:44;;;;;;;10.80;1.65;;;;;;;;;;5054432;28;20103;-88
2023/10/05 02:26:10;;;;;;;5.47;1.47;;;;;;;;;;5068644;28;20039;-88
2023/10/05 02:28:39;;;;;;;8.95;1.67;;;;;;;;;;5057515;28;20037;-88
2023/10/05 02:31:08;;;;;;;4.97;1.10;;;;;;;;;;5058353;28;20090;-88
2023/10/05 02:33:37;;;;;;;9.07;1.13;;;;;;;;;;5058533;28;20020;-87
2023/10/05 02:36:21;;;;;;;7.55;1.55;;;;;;;;;;5058319;28;20103;-88
2023/10/05 02:38:53;;;;;;;4.32;1.20;;;;;;;;;;5050917;28;20035;-87
2023/10/05 02:41:40;;;;;;;8.15;1.45;;;;;;;;;;5061506;28;20024;-88
2023/10/05 02:44:09;;;;;;;8.10;1.27;;;;;;;;;;5075613;28;20044;-88
2023/10/05 02:46:34;;;;;;;4.55;1.48;;;;;;;;;;5058506;28;20329;-87
2023/10/05 02:48:59;;;;;;;9.75;1.75;;;;;;;;;;5059488;28;20020;-87
2023/10/05 02:51:26;;;;;;;4.07;1.20;;;;;;;;;;5060949;28;20017;-87
2023/10/05 02:53:56;;;;;;;10.00;1.35;;;;;;;;;;5058876;28;20024;-88
2023/10/05 02:56:33;;;;;;;4.18;1.45;;;;;;;;;;5057616;28;20031;-87
2023/10/05 02:59:19;;;;;;;4.55;1.35;;;;;;;;;;5057509;28;20539;-88
2023/10/05 03:01:48;;;;;;;7.03;1.30;;;;;;;;;;5046289;28;20116;-88
2023/10/05 03:06:42;;;;;;;6.70;1.30;;;;;;;;;;5076713;28;20382;-88
2023/10/05 03:09:08;;;;;;;10.75;1.50;;;;;;;;;;5059724;28;20112;-88
2023/10/05 03:11:37;;;;;;;6.10;1.70;;;;;;;;;;5061152;28;20031;-88
2023/10/05 03:14:04;;;;;;;10.43;2.00;;;;;;;;;;5091498;28;20021;-87
2023/10/05 03:16:29;;;;;;;7.47;1.98;;;;;;;;;;5056939;28;20344;-88
2023/10/05 03:18:54;;;;;;;6.93;2.03;;;;;;;;;;5054132;28;20021;-88
2023/10/05 03:21:21;;;;;;;5.40;1.23;;;;;;;;;;5057125;28;20086;-88
2023/10/05 03:23:46;;;;;;;11.10;2.03;;;;;;;;;;5057275;28;20027;-88
2023/10/05 03:26:16;;;;;;;5.78;1.48;;;;;;;;;;5090861;28;20025;-88
2023/10/05 03:28:41;;;;;;;6.78;1.38;;;;;;;;;;5057311;28;20023;-88
2023/10/05 03:31:31;;;;;;;6.15;1.60;;;;;;;;;;5057681;28;20021;-89
2023/10/05 03:33:56;;;;;;;7.72;2.17;;;;;;;;;;5057123;28;20024;-88
2023/10/05 03:36:22;;;;;;;3.88;1.45;;;;;;;;;;5090291;28;20028;-88
2023/10/05 03:38:55;;;;;;;11.95;1.90;;;;;;;;;;5057224;28;20134;-88
2023/10/05 03:41:26;;;;;;;8.80;1.30;;;;;;;;;;5057625;28;20020;-87
2023/10/05 03:43:52;;;;;;;4.82;1.23;;;;;;;;;;5090593;28;20016;-88
2023/10/05 03:46:17;;;;;;;10.05;1.55;;;;;;;;;;5056837;28;20012;-88
2023/10/05 03:48:42;;;;;;;6.43;1.85;;;;;;;;;;5056856;28;20021;-88
2023/10/05 03:51:17;;;;;;;6.22;1.20;;;;;;;;;;5057177;28;20060;-88
2023/10/05 03:53:56;;;;;;;5.38;1.50;;;;;;;;;;5056989;28;20013;-88
2023/10/05 03:56:23;;;;;;;5.90;1.50;;;;;;;;;;5045911;28;20478;-88
2023/10/05 03:58:54;;;;;;;4.90;1.20;;;;;;;;;;5056928;28;20073;-88
2023/10/05 04:01:21;;;;;;;6.57;1.30;;;;;;;;;;5055740;28;20017;-88
2023/10/05 04:03:48;;;;;;;9.38;1.50;;;;;;;;;;5047379;28;20028;-88
2023/10/05 04:06:20;;;;;;;6.30;1.35;;;;;;;;;;5052725;28;20444;-88
2023/10/05 04:08:47;;;;;;;7.63;1.40;;;;;;;;;;5059647;28;20051;-88
2023/10/05 04:11:13;;;;;;;8.68;1.73;;;;;;;;;;5057664;28;20475;-88
2023/10/05 04:13:38;;;;;;;8.57;1.60;;;;;;;;;;5043834;28;20025;-86
2023/10/05 04:16:08;;;;;;;7.20;1.60;;;;;;;;;;5057341;28;20034;-87
2023/10/05 04:18:33;;;;;;;8.82;1.63;;;;;;;;;;5056727;28;20058;-88
2023/10/05 04:20:58;;;;;;;4.13;1.25;;;;;;;;;;5056735;28;20099;-88
2023/10/05 04:23:30;;;;;;;4.13;1.50;;;;;;;;;;5054854;28;20044;-88
2023/10/05 04:25:56;;;;;;;17.33;1.88;;;;;;;;;;5056120;28;20027;-88
2023/10/05 04:28:34;;;;;;;4.85;1.30;;;;;;;;;;5056229;28;20028;-88
2023/10/05 04:31:00;;;;;;;7.78;1.63;;;;;;;;;;5056194;28;20078;-88
2023/10/05 04:33:29;;;;;;;7.05;1.65;;;;;;;;;;5055801;28;20016;-88
2023/10/05 04:35:55;;;;;;;10.10;1.42;;;;;;;;;;5050170;28;20024;-87
2023/10/05 04:38:25;;;;;;;9.93;1.40;;;;;;;;;;5055877;28;20097;-88
2023/10/05 04:40:51;;;;;;;10.70;1.90;;;;;;;;;;5055784;28;20471;-87
2023/10/05 04:43:17;;;;;;;5.20;1.65;;;;;;;;;;5056157;28;20025;-88
2023/10/05 04:45:42;;;;;;;6.45;1.55;;;;;;;;;;5053250;28;20013;-87
2023/10/05 04:48:08;;;;;;;5.32;1.45;;;;;;;;;;5041505;28;20090;-88
2023/10/05 04:50:35;;;;;;;8.07;1.30;;;;;;;;;;5084083;28;20027;-88
2023/10/05 04:53:01;;;;;;;7.10;1.88;;;;;;;;;;5055668;28;20017;-88
2023/10/05 04:55:34;;;;;;;11.50;2.15;;;;;;;;;;5055706;28;20020;-88
2023/10/05 05:01:28;;;;;;;11.50;2.45;;;;;;;;;;4972865;28;20106;-88
2023/10/05 05:04:13;;;;;;;13.02;2.35;;;;;;;;;;5048026;28;20391;-88
2023/10/05 05:06:41;;;;;;;9.30;2.10;;;;;;;;;;5088193;28;20361;-88
2023/10/05 05:09:12;;;;;;;8.07;1.35;;;;;;;;;;5056056;28;20036;-88
2023/10/05 05:11:37;;;;;;;14.70;2.67;;;;;;;;;;5056852;28;20044;-88
2023/10/05 05:14:04;;;;;;;8.60;2.10;;;;;;;;;;5056625;28;20044;-87
2023/10/05 05:16:29;;;;;;;11.77;2.33;;;;;;;;;;5075042;28;20046;-88
2023/10/05 05:18:55;;;;;;;11.23;2.40;;;;;;;;;;5075473;28;20052;-87
2023/10/05 05:21:20;;;;;;;10.32;1.65;;;;;;;;;;5055405;28;20016;-87
2023/10/05 05:23:47;;;;;;;8.48;1.85;;;;;;;;;;5056860;28;20123;-88
2023/10/05 05:26:12;;;;;;;6.35;1.65;;;;;;;;;;5056239;28;20041;-88
2023/10/05 05:28:38;;;;;;;7.65;1.70;;;;;;;;;;5052005;28;20138;-88
2023/10/05 05:31:08;;;;;;;6.88;1.73;;;;;;;;;;5045395;28;20025;-88
2023/10/05 05:33:38;;;;;;;5.75;1.90;;;;;;;;;;5074569;28;20425;-88
2023/10/05 05:36:11;;;;;;;12.48;2.70;;;;;;;;;;5073169;28;20032;-88
2023/10/05 05:38:38;;;;;;;8.07;3.03;;;;;;;;;;5055586;28;20112;-88
2023/10/05 05:41:11;;;;;;;7.00;2.28;;;;;;;;;;5055717;28;20078;-88
2023/10/05 05:43:39;;;;;;;9.13;2.08;;;;;;;;;;5054799;28;20040;-88
2023/10/05 05:46:10;;;;;;;11.57;2.42;;;;;;;;;;5055265;28;20027;-88
2023/10/05 05:48:36;;;;;;;8.70;2.38;;;;;;;;;;5052001;28;20159;-89
2023/10/05 05:51:10;;;;;;;13.30;2.40;;;;;;;;;;5070903;28;20115;-88
2023/10/05 05:53:35;;;;;;;12.55;2.05;;;;;;;;;;5055111;28;20440;-88
2023/10/05 05:56:03;;;;;;;6.90;1.77;;;;;;;;;;5055446;28;20043;-88
2023/10/05 05:58:28;;;;;;;11.57;2.95;;;;;;;;;;5054328;28;20020;-86
2023/10/05 06:00:55;;;;;;;10.95;1.83;;;;;;;;;;5055884;28;20035;-88
2023/10/05 06:03:20;;;;;;;8.48;1.95;;;;;;;;;;5059031;28;20048;-88
2023/10/05 06:05:48;;;;;;;13.50;2.47;;;;;;;;;;5076741;28;20035;-88
2023/10/05 06:08:16;;;;;;;6.70;1.58;;;;;;;;;;5089533;28;20048;-88
2023/10/05 06:10:46;;;;;;;8.50;2.03;;;;;;;;;;5058924;28;20031;-88
2023/10/05 06:13:13;;;;;;;7.03;1.80;;;;;;;;;;5056135;28;20036;-88
2023/10/05 06:15:39;;;;;;;6.53;2.13;;;;;;;;;;5064053;28;20027;-88
2023/10/05 06:18:05;;;;;;;8.10;1.70;;;;;;;;;;5059099;28;20013;-88
2023/10/05 06:20:31;;;;;;;5.53;1.88;;;;;;;;;;5059400;28;20460;-88
2023/10/05 06:22:58;;;;;;;9.07;2.03;;;;;;;;;;5060547;28;20074;-88
2023/10/05 06:25:25;;;;;;;6.22;1.70;;;;;;;;;;5065370;28;20017;-88
2023/10/05 06:27:51;;;;;;;7.20;2.10;;;;;;;;;;5084087;28;20468;-89
2023/10/05 06:30:25;;;;;;;8.55;2.20;;;;;;;;;;5062045;28;20131;-89
2023/10/05 06:32:53;;;;;;;9.88;1.65;;;;;;;;;;5057006;28;20078;-89
2023/10/05 06:35:18;;;;;;;8.23;1.75;;;;;;;;;;5055973;28;20025;-89
2023/10/05 06:37:48;;;;;;;6.13;1.88;;;;;;;;;;5060539;28;20115;-90
2023/10/05 06:40:15;;;;;;;9.73;1.77;;;;;;;;;;5084577;28;20024;-89
2023/10/05 06:42:41;;;;;;;5.95;1.52;;;;;;;;;;5086761;28;20341;-89
2023/10/05 06:45:11;;;;;;;8.35;1.90;;;;;;;;;;5055796;28;20065;-89
2023/10/05 06:47:36;;;;;;;7.93;2.13;;;;;;;;;;5057080;28;20719;-89
2023/10/05 06:50:13;;;;;;;6.85;1.90;;;;;;;;;;5058201;28;20016;-87
2023/10/05 06:52:40;;;;;;;7.97;1.90;;;;;;;;;;5056968;28;20036;-89
2023/10/05 06:55:11;;;;;;;6.47;1.83;;;;;;;;;;5059091;28;20384;-88
2023/10/05 06:57:37;;;;;;;6.57;2.40;;;;;;;;;;5074718;28;20472;-89
2023/10/05 07:00:16;;;;;;;8.20;1.85;;;;;;;;;;5057943;28;20074;-89
2023/10/05 07:02:41;;;;;;;10.60;2.10;;;;;;;;;;5057815;28;20070;-88
2023/10/05 07:05:07;;;;;;;10.98;2.03;;;;;;;;;;5058367;28;20020;-89
2023/10/05 07:07:33;;;;;;;6.70;1.98;;;;;;;;;;5064134;28;20157;-89
2023/10/05 07:09:58;;;;;;;9.05;2.40;;;;;;;;;;5058304;28;20047;-89
2023/10/05 07:12:24;;;;;;;7.10;1.92;;;;;;;;;;5056211;28;20024;-89
2023/10/05 07:14:50;;;;;;;12.45;2.42;;;;;;;;;;5057338;28;20111;-89
2023/10/05 07:17:16;;;;;;;11.90;1.85;;;;;;;;;;5056096;28;20027;-89
2023/10/05 07:19:48;;;;;;;8.23;2.42;;;;;;;;;;5068154;28;20416;-89
2023/10/05 07:22:13;;;;;;;;;;;;;;;;;;5057090;28;20028;-89
2023/10/05 07:24:40;;;;;;;9.10;1.80;;;;;;;;;;5056375;28;19919;-89
2023/10/05 07:27:05;;;;;;;9.77;2.28;;;;;;;;;;5058758;28;20036;-88
2023/10/05 07:29:34;;;;;;;8.13;1.80;;;;;;;;;;5056477;28;20051;-89
2023/10/05 07:32:01;;;;;;;15.65;2.55;;;;;;;;;;5057776;28;20391;-88
2023/10/05 07:34:26;;;;;;;7.63;1.85;;;;;;;;;;5058350;28;20028;-89
2023/10/05 07:36:52;;;;;;;8.93;2.08;;;;;;;;;;5065521;28;20043;-89
2023/10/05 07:39:18;;;;;;;15.25;2.05;;;;;;;;;;5062907;28;20023;-88
2023/10/05 07:41:46;;;;;;;13.38;2.28;;;;;;;;;;5081932;28;20038;-89
2023/10/05 07:44:11;;;;;;;9.55;2.20;;;;;;;;;;5059284;28;20055;-89
2023/10/05 07:46:38;;;;;;;5.90;1.98;;;;;;;;;;5059344;28;20024;-89
2023/10/05 07:49:03;;;;;;;9.98;2.13;;;;;;;;;;5076381;28;20016;-88
2023/10/05 07:51:30;;;;;;;13.20;2.63;;;;;;;;;;5061360;28;20052;-88
2023/10/05 07:53:55;;;;;;;8.23;2.08;;;;;;;;;;5089704;28;20071;-89
2023/10/05 07:56:21;;;;;;;10.75;2.55;;;;;;;;;;5074474;28;20456;-89
2023/10/05 07:58:46;;;;;;;9.40;2.20;;;;;;;;;;5056183;28;20027;-89
2023/10/05 08:01:12;;;;;;;8.65;2.85;;;;;;;;;;5056423;28;20048;-88
2023/10/05 08:03:39;;;;;;;12.82;2.58;;;;;;;;;;5056039;28;20031;-89
2023/10/05 08:06:05;;;;;;;7.45;2.30;;;;;;;;;;5056589;28;20107;-88
2023/10/05 08:08:30;;;;;;;10.38;1.90;;;;;;;;;;5053692;28;20055;-89
2023/10/05 08:10:56;;;;;;;6.05;1.90;;;;;;;;;;5056590;28;20024;-89
2023/10/05 08:13:22;;;;;;;10.30;2.45;;;;;;;;;;5056741;28;20020;-89
2023/10/05 08:15:48;;;;;;;11.20;2.38;;;;;;;;;;5056940;28;20021;-89
2023/10/05 08:18:15;;;;;;;17.15;2.60;;;;;;;;;;5073800;28;20043;-89
2023/10/05 08:20:40;;;;;;;9.02;2.10;;;;;;;;;;5056424;28;20052;-89
2023/10/05 08:23:06;;;;;;;12.48;2.58;;;;;;;;;;5055785;28;20495;-88
2023/10/05 08:25:31;;;;;;;11.05;2.70;;;;;;;;;;5056533;28;20017;-89
2023/10/05 08:27:56;;;;;;;8.40;2.42;;;;;;;;;;5055379;28;20107;-89
2023/10/05 08:30:24;;;;;;;6.25;1.98;;;;;;;;;;5056330;28;20082;-88
2023/10/05 08:32:50;;;;;;;9.68;2.15;;;;;;;;;;5056781;28;20111;-89
2023/10/05 08:35:18;;;;;;;11.05;2.65;;;;;;;;;;5053289;28;20056;-88
2023/10/05 08:37:49;;;;;;;8.95;2.15;;;;;;;;;;5089794;28;20177;-88
2023/10/05 08:40:30;;;;;;;15.98;2.80;;;;;;;;;;5056784;28;20028;-89
2023/10/05 08:42:55;;;;;;;8.80;2.35;;;;;;;;;;5047593;28;20058;-88
2023/10/05 08:45:23;;;;;;;12.48;2.72;;;;;;;;;;5056972;28;20024;-89
2023/10/05 08:47:53;;;;;;;5.40;2.35;;;;;;;;;;5061780;28;20084;-89
2023/10/05 08:50:22;;;;;;;11.45;2.42;;;;;;;;;;5056474;28;20462;-88
2023/10/05 08:52:47;;;;;;;8.32;2.00;;;;;;;;;;5057946;28;20452;-88
2023/10/05 08:55:13;;;;;;;9.57;2.20;;;;;;;;;;5056256;28;20020;-88
2023/10/05 08:57:39;;;;;;;14.93;2.38;;;;;;;;;;5073507;28;20028;-88
2023/10/05 09:00:08;;;;;;;12.57;2.78;;;;;;;;;;5055624;28;20031;-88
2023/10/05 09:02:36;;;;;;;17.63;2.92;;;;;;;;;;5056430;28;20028;-88
2023/10/05 09:05:07;;;;;;;10.82;2.50;;;;;;;;;;5055396;28;20393;-87
2023/10/05 09:07:37;;;;;;;8.23;2.17;;;;;;;;;;5058249;28;20020;-90
2023/10/05 09:10:05;;;;;;;11.73;2.38;;;;;;;;;;5054803;28;20021;-89
2023/10/05 09:12:42;;;;;;;13.10;2.42;;;;;;;;;;5054608;28;20052;-89
2023/10/05 09:15:28;;;;;;;10.68;2.33;;;;;;;;;;5054518;28;20039;-90
2023/10/05 09:20:36;;;;;;;9.95;2.13;;;;;;;;;;5072647;28;20020;-89
2023/10/05 09:23:06;;;;;;;10.55;2.05;;;;;;;;;;5054573;28;20020;-87
2023/10/05 09:25:38;;;;;;;9.43;2.60;;;;;;;;;;5055076;28;20025;-87
2023/10/05 09:28:13;;;;;;;11.93;2.22;;;;;;;;;;5054288;28;20326;-87
2023/10/05 09:30:55;;;;;;;14.30;2.42;;;;;;;;;;5054552;28;20016;-87
2023/10/05 09:33:21;;;;;;;15.82;1.95;;;;;;;;;;5053025;28;20116;-87
2023/10/05 09:35:46;;;;;;;13.18;1.85;;;;;;;;;;5056336;28;20025;-87
2023/10/05 09:38:19;;;;;;;12.50;2.03;;;;;;;;;;5058450;28;20043;-87
2023/10/05 09:40:47;;;;;;;10.98;2.92;;;;;;;;;;5058329;28;20124;-87
2023/10/05 09:43:15;;;;;;;9.88;2.05;;;;;;;;;;5058190;28;20023;-87
2023/10/05 09:45:43;;;;;;;11.45;2.80;;;;;;;;;;5075489;28;20024;-87
2023/10/05 09:48:13;;;;;;;11.55;2.00;;;;;;;;;;5057853;28;20417;-87
2023/10/05 09:50:38;;;;;;;20.20;2.78;;;;;;;;;;5058782;28;20035;-87
2023/10/05 09:53:06;;;;;;;12.82;2.22;;;;;;;;;;5075746;28;20484;-87
2023/10/05 09:55:33;;;;;;;12.07;2.75;;;;;;;;;;5058257;28;20021;-87
2023/10/05 09:58:05;;;;;;;5.68;2.17;;;;;;;;;;5077633;28;20111;-88
2023/10/05 10:03:06;;;;;;;6.78;1.83;;;;;;;;;;5077750;28;20024;-87
2023/10/05 10:05:35;;;;;;;9.75;1.95;;;;;;;;;;5060214;28;20344;-87
2023/10/05 10:08:23;;;;;;;10.30;2.70;;;;;;;;;;5059860;28;20032;-87
2023/10/05 10:11:02;;;;;;;15.05;2.63;;;;;;;;;;5060008;28;20024;-87
2023/10/05 10:13:28;;;;;;;8.38;1.70;;;;;;;;;;5092974;28;20024;-87
2023/10/05 10:15:54;;;;;;;9.65;1.83;;;;;;;;;;5056948;28;20025;-87
2023/10/05 10:18:34;;;;;;;7.57;1.80;;;;;;;;;;5058781;28;20028;-87
2023/10/05 10:21:08;;;;;;;14.45;2.25;;;;;;;;;;5061042;28;20017;-86
2023/10/05 10:23:36;;;;;;;11.32;2.28;;;;;;;;;;5057699;28;20055;-87
2023/10/05 10:26:17;;;;;;;10.93;2.38;;;;;;;;;;5057762;28;20023;-87
2023/10/05 10:31:14;;;;;;;9.80;2.03;;;;;;;;;;5075848;28;20036;-87
2023/10/05 10:33:40;;;;;;;7.60;2.05;;;;;;;;;;5057610;28;20122;-88
2023/10/05 10:36:17;;;;;;;8.73;1.70;;;;;;;;;;5057407;28;20025;-88
2023/10/05 10:38:44;;;;;;;9.23;1.80;;;;;;;;;;5075628;28;20452;-87
2023/10/05 10:41:09;;;;;;;3.90;1.23;;;;;;;;;;5057353;28;20529;-88
2023/10/05 10:43:37;;;;;;;8.98;2.38;;;;;;;;;;5075125;28;20028;-88
2023/10/05 10:46:13;;;;;;;16.50;2.38;;;;;;;;;;5056057;28;20376;-88
2023/10/05 10:48:57;;;;;;;10.35;1.90;;;;;;;;;;5060159;28;20174;-88
2023/10/05 10:51:22;;;;;;;9.15;2.78;;;;;;;;;;5062929;28;20015;-87
2023/10/05 10:53:51;;;;;;;7.63;1.50;;;;;;;;;;5061616;28;20029;-88
2023/10/05 10:56:21;;;;;;;13.10;2.00;;;;;;;;;;5057364;28;20037;-88
2023/10/05 10:58:56;;;;;;;6.40;1.63;;;;;;;;;;5058106;28;20353;-88
2023/10/05 11:04:36;;;;;;;10.85;1.60;;;;;;;;;;5077701;28;20019;-87
2023/10/05 11:07:28;;;;;;;8.55;1.55;;;;;;;;;;5040358;28;20028;-87
2023/10/05 11:09:53;;;;;;;5.43;1.80;;;;;;;;;;5080990;28;20043;-88
2023/10/05 11:12:22;;;;;;;8.05;2.05;;;;;;;;;;5051008;28;20033;-88
2023/10/05 11:14:47;;;;;;;6.55;1.70;;;;;;;;;;5055779;28;20020;-87
2023/10/05 11:17:23;;;;;;;10.80;2.10;;;;;;;;;;5060965;28;20019;-87
2023/10/05 11:19:49;;;;;;;9.57;1.85;;;;;;;;;;5091622;28;20107;-87
2023/10/05 11:22:23;;;;;;;6.65;1.90;;;;;;;;;;5070884;28;20063;-87
2023/10/05 11:25:14;;;;;;;7.63;1.65;;;;;;;;;;5058410;28;20074;-87
2023/10/05 11:27:44;;;;;;;8.40;1.80;;;;;;;;;;5066901;28;20077;-87
2023/10/05 11:30:18;;;;;;;5.28;1.60;;;;;;;;;;5058640;28;20024;-87
2023/10/05 11:32:44;;;;;;;5.15;1.63;;;;;;;;;;5057932;28;20195;-87
2023/10/05 11:35:13;;;;;;;7.10;1.77;;;;;;;;;;5057572;28;20027;-86
2023/10/05 11:37:38;;;;;;;6.97;1.80;;;;;;;;;;5057158;28;20024;-87
2023/10/05 11:40:05;;;;;;;11.63;1.58;;;;;;;;;;5067577;28;20020;-86
2023/10/05 11:42:41;;;;;;;7.47;1.58;;;;;;;;;;5057949;28;20009;-88
2023/10/05 11:45:15;;;;;;;10.27;1.83;;;;;;;;;;5056844;28;20490;-88
2023/10/05 11:47:46;;;;;;;11.82;1.92;;;;;;;;;;5056980;28;20020;-87
2023/10/05 11:50:24;;;;;;;6.68;1.70;;;;;;;;;;5055441;28;20021;-88
2023/10/05 11:52:49;;;;;;;9.75;1.92;;;;;;;;;;5075063;28;20028;-88
2023/10/05 11:55:17;;;;;;;10.75;1.80;;;;;;;;;;5057401;28;20024;-87
2023/10/05 11:57:42;;;;;;;4.80;1.55;;;;;;;;;;5056811;28;20460;-88
2023/10/05 12:00:07;;;;;;;8.00;1.63;;;;;;;;;;5052478;28;20630;-88
2023/10/05 12:02:33;;;;;;;5.63;1.38;;;;;;;;;;5055578;28;20013;-88
2023/10/05 12:04:59;;;;;;;8.52;1.45;;;;;;;;;;5074527;28;20015;-89
2023/10/05 12:07:25;;;;;;;6.45;1.30;;;;;;;;;;5053836;28;20071;-88
2023/10/05 12:09:53;;;;;;;5.05;1.10;;;;;;;;;;5073917;28;20021;-88
2023/10/05 12:12:18;;;;;;;9.75;1.40;;;;;;;;;;5066306;28;20028;-88
2023/10/05 12:14:44;;;;;;;6.85;1.27;;;;;;;;;;5053916;28;20457;-87
2023/10/05 12:17:10;;;;;;;5.68;1.40;;;;;;;;;;5054296;28;20049;-88
2023/10/05 12:19:35;;;;;;;4.25;1.30;;;;;;;;;;5067980;28;20016;-88
2023/10/05 12:22:13;;;;;;;6.90;1.20;;;;;;;;;;5056701;28;20112;-88
2023/10/05 12:24:38;;;;;;;6.15;1.70;;;;;;;;;;5057177;28;20016;-88
2023/10/05 12:27:13;;;;;;;9.57;1.60;;;;;;;;;;5057453;28;20035;-89
2023/10/05 12:29:44;;;;;;;7.32;1.25;;;;;;;;;;5057309;28;20089;-88
2023/10/05 12:32:13;;;;;;;10.40;1.60;;;;;;;;;;5057516;28;20024;-88
2023/10/05 12:34:41;;;;;;;5.80;1.23;;;;;;;;;;5056805;28;20338;-88
2023/10/05 12:37:08;;;;;;;6.72;1.40;;;;;;;;;;5057415;28;20521;-88
2023/10/05 12:39:33;;;;;;;5.15;1.13;;;;;;;;;;5056900;28;20012;-88
2023/10/05 12:42:03;;;;;;;6.15;1.00;;;;;;;;;;5056506;28;20073;-88
2023/10/05 12:44:32;;;;;;;7.43;1.42;;;;;;;;;;5056567;28;20376;-88
2023/10/05 12:46:59;;;;;;;5.82;1.38;;;;;;;;;;5057324;28;20028;-88
2023/10/05 12:49:25;;;;;;;9.55;1.50;;;;;;;;;;5056538;28;20021;-88
2023/10/05 12:51:50;;;;;;;7.35;1.73;;;;;;;;;;5056114;28;20097;-86
2023/10/05 12:54:18;;;;;;;9.48;1.55;;;;;;;;;;5056138;28;20049;-88
2023/10/05 12:56:44;;;;;;;4.97;1.30;;;;;;;;;;5055923;28;20044;-88
2023/10/05 12:59:15;;;;;;;12.98;1.25;;;;;;;;;;5056001;28;20384;-88
2023/10/05 13:01:41;;;;;;;4.25;1.48;;;;;;;;;;5053145;28;20017;-88
2023/10/05 13:04:13;;;;;;;6.72;1.42;;;;;;;;;;5056116;28;20025;-87
2023/10/05 13:06:39;;;;;;;6.63;1.00;;;;;;;;;;5056141;28;20410;-88
2023/10/05 13:09:11;;;;;;;3.83;1.20;;;;;;;;;;5054713;28;20122;-88
2023/10/05 13:11:39;;;;;;;9.02;1.67;;;;;;;;;;5056047;28;20037;-88
2023/10/05 13:14:08;;;;;;;10.95;1.38;;;;;;;;;;5055939;28;20024;-88
2023/10/05 13:16:35;;;;;;;3.88;0.95;;;;;;;;;;5055593;28;20048;-88
2023/10/05 13:19:00;;;;;;;6.00;1.33;;;;;;;;;;5089191;28;20027;-88
2023/10/05 13:21:26;;;;;;;7.63;1.30;;;;;;;;;;4930337;28;20208;-88
2023/10/05 13:23:54;;;;;;;8.10;1.30;;;;;;;;;;5056500;28;20017;-88
2023/10/05 13:26:20;;;;;;;4.10;1.13;;;;;;;;;;5056366;28;20347;-89
2023/10/05 13:28:47;;;;;;;7.10;1.05;;;;;;;;;;5055886;28;20434;-88
2023/10/05 13:31:13;;;;;;;6.78;1.50;;;;;;;;;;5057007;28;20551;-89
2023/10/05 13:33:40;;;;;;;5.22;1.40;;;;;;;;;;5056253;28;20556;-89
2023/10/05 13:36:11;;;;;;;8.00;1.23;;;;;;;;;;5055940;28;20031;-89
2023/10/05 13:38:37;;;;;;;4.93;1.17;;;;;;;;;;5056134;28;20024;-88
2023/10/05 13:43:31;;;;;;;3.75;1.30;;;;;;;;;;5074892;28;20054;-89
2023/10/05 13:46:12;;;;;;;3.15;1.17;;;;;;;;;;5056124;28;20059;-89
2023/10/05 13:48:40;;;;;;;8.20;1.80;;;;;;;;;;5045322;28;20079;-89
2023/10/05 13:51:07;;;;;;;6.80;1.60;;;;;;;;;;5042697;28;20383;-89
2023/10/05 13:53:34;;;;;;;8.43;1.52;;;;;;;;;;5056380;28;20027;-88
2023/10/05 13:56:00;;;;;;;4.47;1.10;;;;;;;;;;5072847;28;20076;-88
2023/10/05 13:58:31;;;;;;;8.05;1.40;;;;;;;;;;5088070;28;20071;-89
2023/10/05 14:01:01;;;;;;;4.30;1.38;;;;;;;;;;5055666;28;20425;-88
2023/10/05 14:03:26;;;;;;;8.48;1.50;;;;;;;;;;5055540;28;20036;-88
2023/10/05 14:05:54;;;;;;;7.93;1.48;;;;;;;;;;5055792;28;20016;-89
2023/10/05 14:08:22;;;;;;;4.80;1.20;;;;;;;;;;5055420;28;20039;-89
2023/10/05 14:10:48;;;;;;;7.45;1.40;;;;;;;;;;5052982;28;20047;-89
2023/10/05 14:13:16;;;;;;;5.85;1.08;;;;;;;;;;5055633;28;20104;-89
2023/10/05 14:15:42;;;;;;;5.00;1.30;;;;;;;;;;5055184;28;20027;-88
2023/10/05 14:18:09;;;;;;;3.47;0.90;;;;;;;;;;5055519;28;20012;-89
2023/10/05 14:20:38;;;;;;;3.72;0.80;;;;;;;;;;5055415;28;20495;-89
2023/10/05 14:23:05;;;;;;;5.55;1.30;;;;;;;;;;5059060;28;20029;-88
2023/10/05 14:25:30;;;;;;;8.88;2.10;;;;;;;;;;5058963;28;20020;-89
2023/10/05 14:27:58;;;;;;;3.53;0.90;;;;;;;;;;5058930;28;20021;-88
2023/10/05 14:30:23;;;;;;;6.50;1.50;;;;;;;;;;5056485;28;20062;-89
2023/10/05 14:32:49;;;;;;;2.90;1.20;;;;;;;;;;5058994;28;20472;-89
2023/10/05 14:35:18;;;;;;;2.88;1.13;;;;;;;;;;5058555;28;20031;-89
2023/10/05 14:37:49;;;;;;;4.35;1.02;;;;;;;;;;5058894;28;20487;-89
2023/10/05 14:40:24;;;;;;;5.63;1.00;;;;;;;;;;5059167;28;20080;-88
2023/10/05 14:42:53;;;;;;;3.08;1.38;;;;;;;;;;5063642;28;20028;-89
2023/10/05 14:45:21;;;;;;;4.40;1.20;;;;;;;;;;5058508;28;20019;-89
2023/10/05 14:47:48;;;;;;;5.45;1.25;;;;;;;;;;5059045;28;20372;-89
2023/10/05 14:50:14;;;;;;;8.00;1.67;;;;;;;;;;5058834;28;20016;-90
2023/10/05 14:52:42;;;;;;;4.70;0.80;;;;;;;;;;5058580;28;20082;-88
2023/10/05 14:55:08;;;;;;;10.27;1.48;;;;;;;;;;5059120;28;20078;-89
2023/10/05 14:57:34;;;;;;;6.18;1.27;;;;;;;;;;5059206;28;20016;-89
2023/10/05 14:59:59;;;;;;;4.95;1.20;;;;;;;;;;5100603;28;20523;-88
2023/10/05 15:02:27;;;;;;;5.18;1.10;;;;;;;;;;5063587;28;20016;-89
2023/10/05 15:04:55;;;;;;;6.28;1.27;;;;;;;;;;5062575;28;20020;-89
2023/10/05 15:07:20;;;;;;;3.15;1.08;;;;;;;;;;5083581;28;20070;-89
2023/10/05 15:09:45;;;;;;;4.85;1.30;;;;;;;;;;5058956;28;20016;-89
2023/10/05 15:12:11;;;;;;;5.68;1.05;;;;;;;;;;5075768;28;20036;-89
2023/10/05 15:14:37;;;;;;;4.57;1.10;;;;;;;;;;5057538;28;20024;-89